Date,TemperatureHighF,TemperatureAvgF,TemperatureLowF,DewpointHighF,DewpointAvgF,DewpointLowF,HumidityHigh,HumidityAvg,HumidityLow,PressureMaxIn,PressureMinIn,WindSpeedMaxMPH,WindSpeedAvgMPH,GustSpeedMaxMPH,PrecipitationSumIn
2013-1-1,8,0,-6,-100,-100,-100,0,0,100,0.00,40.00,0,-999,0,0.01
2013-1-2,11,1,-6,-100,-100,-100,0,0,100,0.00,40.00,0,-999,0,0.01
2013-1-3,23,6,-8,-100,-100,-100,0,0,100,0.00,40.00,0,-999,0,0.00
2013-1-4,38,21,8,-100,-100,-100,0,0,100,0.00,40.00,0,-999,0,0.00
2013-1-5,26,14,5,-100,-100,-100,0,0,100,0.00,40.00,0,-999,0,0.00
2013-1-6,39,24,12,-100,-100,-100,0,0,100,0.00,40.00,0,-999,0,0.00
2013-1-7,35,23,14,-100,-100,-100,0,0,100,0.00,40.00,0,-999,0,0.00
2013-1-8,21,15,9,-100,-100,-100,0,0,100,0.00,40.00,0,-999,0,0.00
2013-1-9,43,27,13,-100,-100,-100,0,0,100,0.00,40.00,0,-999,0,0.00
2013-1-10,36,32,28,-100,-100,-100,0,0,100,0.00,40.00,0,-999,0,0.00
2013-1-11,22,8,-7,-100,-100,-100,0,0,100,0.00,40.00,0,-999,0,0.01
2013-1-12,3,-6,-15,-100,-100,-100,0,0,100,0.00,40.00,0,-999,0,0.01
2013-1-13,-2,-11,-18,-100,-100,-100,0,0,100,0.00,40.00,0,-999,0,0.01
2013-1-14,4,-10,-19,-100,-100,-100,0,0,100,0.00,40.00,0,-999,0,0.00
2013-1-15,1,-12,-19,-100,-100,-100,0,0,100,0.00,40.00,0,-999,0,0.01
2013-1-16,20,13,2,-100,-100,-100,0,0,100,0.00,40.00,0,-999,0,0.01
2013-1-17,37,20,9,-100,-100,-100,0,0,100,0.00,40.00,0,-999,0,0.01
2013-1-18,32,20,11,-100,-100,-100,0,0,100,0.00,40.00,0,-999,0,0.00
2013-1-19,33,21,14,-100,-100,-100,0,0,100,0.00,40.00,0,-999,0,0.00
2013-1-20,31,22,10,-100,-100,-100,0,0,100,0.00,40.00,0,-999,0,0.00
2013-1-21,31,18,7,-100,-100,-100,0,0,100,0.00,40.00,0,-999,0,0.00
2013-1-22,38,28,17,-100,-100,-100,0,0,100,0.00,40.00,0,-999,0,0.00
2013-1-23,46,34,26,-100,-100,-100,0,0,100,0.00,40.00,0,-999,0,0.00
2013-1-24,39,29,23,-100,-100,-100,0,0,100,0.00,40.00,0,-999,0,0.00
2013-1-25,29,26,24,-100,-100,-100,0,0,100,0.00,40.00,0,-999,0,0.01
2013-1-26,35,28,24,-100,-100,-100,0,0,100,0.00,40.00,0,-999,0,0.00
2013-1-27,37,28,24,-100,-100,-100,0,0,100,0.00,40.00,0,-999,0,0.01
2013-1-28,30,21,7,-100,-100,-100,0,0,100,0.00,40.00,0,-999,0,0.01
2013-1-29,8,0,-6,-100,-100,-100,0,0,100,0.00,40.00,0,-999,0,0.01
2013-1-30,13,5,-4,-100,-100,-100,0,0,100,0.00,40.00,0,-999,0,0.02
2013-1-31,21,16,11,-100,-100,-100,0,0,100,0.00,40.00,0,-999,0,0.02